Wetterdaten: Woche 16.09.19 - 22.09.19 (KW38)
Datum Zeit Temp. Aussen Temp. o. S. +5cm Feuchte Auss Luftdruck Regen Sonnenschein Regendauer Solar Windben Empfang
16.09.2019 00:00 16,0 C 14,9 C 14,3 C 86 % 1021,9 hPa 0,0 l/m 0,00 h 0,00 h 0 W/m 0,0 km/h (0 Bft) 95,57 %
16.09.2019 01:00 15,7 C 14,2 C 13,8 C 87 % 1021,7 hPa 0,0 l/m 0,00 h 0,00 h 0 W/m 0,0 km/h (0 Bft) 98,58 %
16.09.2019 02:00 15,3 C 13,8 C 13,4 C 88 % 1021,6 hPa 0,0 l/m 0,00 h 0,00 h 0 W/m 0,0 km/h (0 Bft) 99,07 %
16.09.2019 03:00 14,7 C 12,9 C 12,8 C 89 % 1021,5 hPa 0,0 l/m 0,00 h 0,00 h 0 W/m 0,0 km/h (0 Bft) 95,66 %
16.09.2019 04:00 14,3 C 13,2 C 12,8 C 90 % 1021,3 hPa 0,0 l/m 0,00 h 0,00 h 0 W/m 0,0 km/h (0 Bft) 97,43 %
16.09.2019 05:00 14,1 C 12,9 C 12,5 C 92 % 1020,7 hPa 0,0 l/m 0,00 h 0,00 h 0 W/m 0,0 km/h (0 Bft) 97,72 %
16.09.2019 06:00 14,1 C 13,4 C 13,0 C 94 % 1020,0 hPa 0,0 l/m 0,00 h 0,00 h 0 W/m 0,0 km/h (0 Bft) 98,23 %
16.09.2019 07:00 14,2 C 13,4 C 13,0 C 94 % 1020,3 hPa 0,0 l/m 0,00 h 0,00 h 10 W/m 0,0 km/h (0 Bft) 96,66 %
16.09.2019 08:00 14,4 C 14,6 C 14,1 C 95 % 1019,9 hPa 0,0 l/m 0,00 h 0,00 h 33 W/m 1,2 km/h (1 Bft) 97,38 %
16.09.2019 09:00 15,1 C 15,6 C 14,9 C 95 % 1020,3 hPa 0,0 l/m 0,00 h 0,03 h 60 W/m 0,2 km/h (0 Bft) 97,86 %
16.09.2019 10:00 15,8 C 15,4 C 14,9 C 94 % 1020,0 hPa 0,0 l/m 0,00 h 0,20 h 99 W/m 1,8 km/h (1 Bft) 97,93 %
16.09.2019 11:00 16,6 C 17,6 C 16,6 C 90 % 1020,0 hPa 0,0 l/m 0,00 h 0,00 h 132 W/m 1,9 km/h (1 Bft) 96,08 %
16.09.2019 12:00 17,7 C 18,6 C 17,7 C 84 % 1019,8 hPa 0,0 l/m 0,00 h 0,00 h 181 W/m 4,1 km/h (1 Bft) 98,57 %
16.09.2019 13:00 18,6 C 19,2 C 18,1 C 83 % 1019,6 hPa 0,0 l/m 0,00 h 0,00 h 151 W/m 2,7 km/h (1 Bft) 98,79 %
16.09.2019 14:00 18,7 C 18,8 C 18,0 C 83 % 1019,5 hPa 0,0 l/m 0,00 h 0,00 h 130 W/m 2,9 km/h (1 Bft) 94,25 %
16.09.2019 15:00 18,3 C 16,4 C 16,0 C 88 % 1019,9 hPa 0,4 l/m 0,00 h 0,33 h 66 W/m 3,0 km/h (1 Bft) 98,63 %
16.09.2019 16:00 16,8 C 14,7 C 14,6 C 93 % 1020,5 hPa 0,4 l/m 0,00 h 0,07 h 37 W/m 3,5 km/h (1 Bft) 98,58 %
16.09.2019 17:00 15,4 C 14,0 C 13,9 C 95 % 1021,3 hPa 0,0 l/m 0,00 h 0,00 h 47 W/m 2,8 km/h (1 Bft) 94,74 %
16.09.2019 18:00 15,1 C 13,8 C 13,7 C 96 % 1021,4 hPa 0,0 l/m 0,00 h 0,00 h 22 W/m 2,1 km/h (1 Bft) 98,27 %
16.09.2019 19:00 14,4 C 13,0 C 12,9 C 96 % 1021,6 hPa 0,0 l/m 0,00 h 0,00 h 8 W/m 1,6 km/h (1 Bft) 98,29 %
16.09.2019 20:00 13,9 C 12,2 C 12,0 C 96 % 1021,9 hPa 0,0 l/m 0,00 h 0,00 h 0 W/m 0,1 km/h (0 Bft) 96,17 %
16.09.2019 21:00 13,3 C 12,1 C 11,9 C 95 % 1022,0 hPa 0,0 l/m 0,00 h 0,00 h 0 W/m 0,0 km/h (0 Bft) 96,94 %
16.09.2019 22:00 13,3 C 12,3 C 12,2 C 96 % 1021,9 hPa 0,0 l/m 0,00 h 0,00 h 0 W/m 0,1 km/h (0 Bft) 98,08 %
16.09.2019 23:00 13,4 C 12,2 C 12,2 C 96 % 1021,7 hPa 0,0 l/m 0,00 h 0,00 h 0 W/m 0,0 km/h (0 Bft) 97,15 %
17.09.2019 00:00 13,5 C 12,7 C 12,2 C 97 % 1021,4 hPa 0,0 l/m 0,00 h 0,00 h 0 W/m 0,1 km/h (0 Bft) 98,29 %
17.09.2019 01:00 13,4 C 12,3 C 12,2 C 97 % 1021,3 hPa 0,0 l/m 0,00 h 0,00 h 0 W/m 0,3 km/h (0 Bft) 96,15 %
17.09.2019 02:00 13,4 C 12,2 C 12,2 C 97 % 1020,8 hPa 0,0 l/m 0,00 h 0,00 h 0 W/m 0,1 km/h (0 Bft) 97,58 %
17.09.2019 03:00 13,1 C 11,7 C 11,5 C 97 % 1020,6 hPa 0,0 l/m 0,00 h 0,00 h 0 W/m 0,0 km/h (0 Bft) 99,22 %
17.09.2019 04:00 12,4 C 11,1 C 10,8 C 97 % 1020,5 hPa 0,0 l/m 0,00 h 0,00 h 0 W/m 0,1 km/h (0 Bft) 95,46 %
17.09.2019 05:00 12,1 C 10,9 C 10,7 C 97 % 1020,4 hPa 0,0 l/m 0,00 h 0,00 h 0 W/m 0,1 km/h (0 Bft) 97,93 %
17.09.2019 06:00 11,8 C 10,8 C 10,6 C 97 % 1020,3 hPa 0,0 l/m 0,00 h 0,00 h 0 W/m 0,0 km/h (0 Bft) 99,04 %
17.09.2019 07:00 11,6 C 10,7 C 10,6 C 97 % 1020,5 hPa 0,2 l/m 0,00 h 0,00 h 13 W/m 0,0 km/h (0 Bft) 96,02 %
17.09.2019 08:00 11,9 C 11,7 C 11,7 C 98 % 1020,4 hPa 0,0 l/m 0,00 h 0,00 h 49 W/m 1,1 km/h (0 Bft) 97,93 %
17.09.2019 09:00 12,3 C 13,5 C 13,1 C 98 % 1020,8 hPa 0,0 l/m 0,47 h 0,00 h 167 W/m 2,4 km/h (1 Bft) 98,01 %
17.09.2019 10:00 14,4 C 19,3 C 18,0 C 89 % 1021,1 hPa 0,0 l/m 0,97 h 0,00 h 416 W/m 4,9 km/h (1 Bft) 97,79 %
17.09.2019 11:00 17,1 C 21,8 C 17,4 C 73 % 1021,3 hPa 0,0 l/m 0,97 h 0,00 h 540 W/m 8,3 km/h (2 Bft) 95,01 %
17.09.2019 12:00 18,4 C 21,4 C 18,0 C 67 % 1021,2 hPa 0,0 l/m 0,80 h 0,00 h 432 W/m 10,5 km/h (2 Bft) 98,08 %
17.09.2019 13:00 17,8 C 19,3 C 18,3 C 68 % 1021,3 hPa 0,0 l/m 0,30 h 0,00 h 327 W/m 9,6 km/h (2 Bft) 99,36 %
17.09.2019 14:00 18,1 C 18,6 C 17,7 C 67 % 1021,0 hPa 0,0 l/m 0,13 h 0,00 h 225 W/m 9,2 km/h (2 Bft) 96,51 %
17.09.2019 15:00 18,4 C 19,7 C 18,1 C 68 % 1021,0 hPa 0,0 l/m 0,33 h 0,00 h 272 W/m 12,0 km/h (2 Bft) 97,65 %
17.09.2019 16:00 18,9 C 21,5 C 18,8 C 65 % 1021,1 hPa 0,0 l/m 0,87 h 0,00 h 362 W/m 14,7 km/h (3 Bft) 97,29 %
17.09.2019 17:00 19,0 C 19,8 C 18,0 C 57 % 1021,3 hPa 0,0 l/m 0,67 h 0,00 h 239 W/m 16,7 km/h (3 Bft) 97,58 %
17.09.2019 18:00 17,1 C 16,1 C 15,7 C 66 % 1021,8 hPa 0,0 l/m 0,03 h 0,00 h 69 W/m 14,8 km/h (3 Bft) 99,19 %
17.09.2019 19:00 14,9 C 13,3 C 13,3 C 71 % 1022,7 hPa 0,0 l/m 0,00 h 0,00 h 18 W/m 11,0 km/h (2 Bft) 96,44 %
17.09.2019 20:00 13,2 C 11,2 C 11,1 C 72 % 1023,4 hPa 0,0 l/m 0,00 h 0,00 h 0 W/m 3,2 km/h (1 Bft) 96,79 %
17.09.2019 21:00 11,8 C 9,7 C 9,6 C 73 % 1024,1 hPa 0,0 l/m 0,00 h 0,00 h 0 W/m 0,8 km/h (0 Bft) 96,94 %
17.09.2019 22:00 10,7 C 8,8 C 8,6 C 76 % 1024,6 hPa 0,0 l/m 0,00 h 0,00 h 0 W/m 0,1 km/h (0 Bft) 98,93 %
17.09.2019 23:00 9,7 C 7,7 C 7,4 C 78 % 1024,9 hPa 0,0 l/m 0,00 h 0,00 h 0 W/m 0,0 km/h (0 Bft) 95,93 %
18.09.2019 00:00 8,8 C 7,2 C 6,8 C 81 % 1025,3 hPa 0,0 l/m 0,00 h 0,00 h 0 W/m 0,2 km/h (0 Bft) 99,43 %
18.09.2019 01:00 8,1 C 6,8 C 6,6 C 85 % 1025,4 hPa 0,0 l/m 0,00 h 0,00 h 0 W/m 0,0 km/h (0 Bft) 96,66 %
18.09.2019 02:00 7,7 C 6,2 C 6,0 C 87 % 1025,6 hPa 0,0 l/m 0,00 h 0,00 h 0 W/m 0,0 km/h (0 Bft) 96,15 %
18.09.2019 03:00 7,1 C 5,8 C 5,6 C 88 % 1025,5 hPa 0,0 l/m 0,00 h 0,00 h 0 W/m 0,1 km/h (0 Bft) 96,73 %
18.09.2019 04:00 6,7 C 5,4 C 5,1 C 89 % 1025,7 hPa 0,0 l/m 0,00 h 0,00 h 0 W/m 0,0 km/h (0 Bft) 99,40 %
18.09.2019 05:00 6,3 C 5,0 C 4,9 C 90 % 1026,0 hPa 0,0 l/m 0,00 h 0,00 h 0 W/m 0,1 km/h (0 Bft) 97,59 %
18.09.2019 06:00 6,0 C 4,9 C 4,4 C 91 % 1026,0 hPa 0,0 l/m 0,00 h 0,00 h 0 W/m 0,1 km/h (0 Bft) 96,49 %
18.09.2019 07:00 5,8 C 4,6 C 4,4 C 92 % 1026,3 hPa 0,0 l/m 0,00 h 0,00 h 13 W/m 0,0 km/h (0 Bft) 96,80 %
18.09.2019 08:00 6,0 C 6,6 C 5,8 C 94 % 1026,9 hPa 0,0 l/m 0,00 h 0,00 h 34 W/m 0,1 km/h (0 Bft) 99,07 %
18.09.2019 09:00 7,8 C 12,6 C 9,0 C 96 % 1027,5 hPa 0,0 l/m 0,57 h 0,00 h 215 W/m 0,6 km/h (0 Bft) 95,98 %
18.09.2019 10:00 12,6 C 20,9 C 18,4 C 88 % 1027,9 hPa 0,0 l/m 1,00 h 0,00 h 494 W/m 6,3 km/h (2 Bft) 97,82 %
18.09.2019 11:00 16,5 C 22,6 C 15,2 C 67 % 1027,8 hPa 0,0 l/m 0,97 h 0,00 h 578 W/m 7,2 km/h (2 Bft) 97,58 %
18.09.2019 12:00 17,4 C 21,0 C 16,1 C 62 % 1027,6 hPa 0,0 l/m 0,47 h 0,00 h 422 W/m 8,1 km/h (2 Bft) 98,97 %
18.09.2019 13:00 18,5 C 21,8 C 17,2 C 58 % 1027,4 hPa 0,0 l/m 0,50 h 0,00 h 475 W/m 7,2 km/h (2 Bft) 97,06 %
18.09.2019 14:00 19,0 C 24,3 C 18,3 C 57 % 1027,0 hPa 0,0 l/m 0,90 h 0,00 h 592 W/m 8,8 km/h (2 Bft) 98,93 %
18.09.2019 15:00 19,7 C 22,1 C 18,2 C 55 % 1026,7 hPa 0,0 l/m 0,53 h 0,00 h 393 W/m 8,5 km/h (2 Bft) 97,37 %
18.09.2019 16:00 18,8 C 22,3 C 18,7 C 61 % 1026,7 hPa 0,0 l/m 0,87 h 0,00 h 466 W/m 9,8 km/h (2 Bft) 95,66 %
18.09.2019 17:00 18,6 C 18,7 C 16,9 C 57 % 1026,5 hPa 0,0 l/m 0,27 h 0,00 h 166 W/m 7,5 km/h (2 Bft) 99,79 %
18.09.2019 18:00 16,6 C 15,6 C 15,3 C 62 % 1026,6 hPa 0,0 l/m 0,20 h 0,00 h 60 W/m 6,4 km/h (2 Bft) 97,98 %
18.09.2019 19:00 15,3 C 13,7 C 13,6 C 67 % 1026,9 hPa 0,0 l/m 0,00 h 0,00 h 11 W/m 2,2 km/h (1 Bft) 95,02 %
18.09.2019 20:00 14,0 C 12,1 C 11,8 C 70 % 1027,5 hPa 0,0 l/m 0,00 h 0,00 h 0 W/m 0,9 km/h (0 Bft) 99,00 %
18.09.2019 21:00 12,8 C 10,8 C 10,4 C 74 % 1028,0 hPa 0,0 l/m 0,00 h 0,00 h 0 W/m 0,0 km/h (0 Bft) 98,30 %
18.09.2019 22:00 11,6 C 10,0 C 9,6 C 78 % 1028,3 hPa 0,0 l/m 0,00 h 0,00 h 0 W/m 0,2 km/h (0 Bft) 96,64 %
18.09.2019 23:00 10,8 C 8,8 C 8,5 C 80 % 1028,5 hPa 0,0 l/m 0,00 h 0,00 h 0 W/m 0,0 km/h (0 Bft) 97,51 %
19.09.2019 00:00 9,8 C 7,7 C 7,6 C 82 % 1028,8 hPa 0,0 l/m 0,00 h 0,00 h 0 W/m 0,0 km/h (0 Bft) 97,19 %
19.09.2019 01:00 8,9 C 6,9 C 7,0 C 83 % 1029,0 hPa 0,0 l/m 0,00 h 0,00 h 0 W/m 0,0 km/h (0 Bft) 96,54 %
19.09.2019 02:00 8,1 C 6,1 C 5,9 C 85 % 1029,2 hPa 0,0 l/m 0,00 h 0,00 h 0 W/m 0,1 km/h (0 Bft) 97,53 %
19.09.2019 03:00 7,3 C 5,5 C 5,4 C 86 % 1029,2 hPa 0,0 l/m 0,00 h 0,00 h 0 W/m 0,0 km/h (0 Bft) 98,72 %
19.09.2019 04:00 6,6 C 5,0 C 4,7 C 89 % 1029,3 hPa 0,0 l/m 0,00 h 0,00 h 0 W/m 0,0 km/h (0 Bft) 99,04 %
19.09.2019 05:00 6,1 C 4,5 C 4,4 C 90 % 1029,4 hPa 0,0 l/m 0,00 h 0,00 h 0 W/m 0,0 km/h (0 Bft) 94,59 %
19.09.2019 06:00 5,7 C 4,1 C 3,9 C 91 % 1029,5 hPa 0,0 l/m 0,00 h 0,00 h 0 W/m 0,0 km/h (0 Bft) 97,99 %
19.09.2019 07:00 5,2 C 4,0 C 3,9 C 91 % 1029,9 hPa 0,0 l/m 0,00 h 0,00 h 12 W/m 0,0 km/h (0 Bft) 98,82 %
19.09.2019 08:00 5,4 C 5,7 C 5,4 C 93 % 1030,4 hPa 0,0 l/m 0,00 h 0,00 h 45 W/m 0,0 km/h (0 Bft) 97,34 %
19.09.2019 09:00 7,8 C 12,6 C 9,1 C 96 % 1031,0 hPa 0,0 l/m 0,53 h 0,00 h 210 W/m 0,1 km/h (0 Bft) 96,67 %
19.09.2019 10:00 12,1 C 20,4 C 17,8 C 90 % 1031,3 hPa 0,0 l/m 1,00 h 0,00 h 480 W/m 0,5 km/h (0 Bft) 98,44 %
19.09.2019 11:00 15,8 C 21,7 C 14,6 C 66 % 1031,3 hPa 0,0 l/m 0,93 h 0,00 h 554 W/m 7,5 km/h (2 Bft) 98,96 %
19.09.2019 12:00 17,1 C 22,4 C 15,8 C 60 % 1031,2 hPa 0,0 l/m 0,97 h 0,00 h 642 W/m 9,2 km/h (2 Bft) 97,87 %
19.09.2019 13:00 18,6 C 24,5 C 19,0 C 55 % 1031,1 hPa 0,0 l/m 0,93 h 0,00 h 742 W/m 8,6 km/h (2 Bft) 97,76 %
19.09.2019 14:00 18,9 C 23,5 C 17,8 C 53 % 1030,6 hPa 0,0 l/m 0,87 h 0,00 h 603 W/m 9,4 km/h (2 Bft) 98,08 %
19.09.2019 15:00 19,6 C 24,3 C 18,1 C 51 % 1030,4 hPa 0,0 l/m 0,97 h 0,00 h 601 W/m 8,7 km/h (2 Bft) 95,48 %
19.09.2019 16:00 19,2 C 22,8 C 18,5 C 51 % 1030,0 hPa 0,0 l/m 1,00 h 0,00 h 476 W/m 7,8 km/h (2 Bft) 99,08 %
19.09.2019 17:00 18,5 C 20,0 C 16,8 C 52 % 1029,7 hPa 0,0 l/m 0,77 h 0,00 h 267 W/m 6,2 km/h (2 Bft) 99,12 %
19.09.2019 18:00 16,5 C 15,3 C 14,6 C 57 % 1029,8 hPa 0,0 l/m 0,00 h 0,00 h 53 W/m 4,3 km/h (1 Bft) 93,78 %
19.09.2019 19:00 15,1 C 13,1 C 12,4 C 60 % 1029,8 hPa 0,0 l/m 0,00 h 0,00 h 16 W/m 0,3 km/h (0 Bft) 99,39 %
19.09.2019 20:00 13,5 C 11,1 C 10,4 C 64 % 1030,1 hPa 0,0 l/m 0,00 h 0,00 h 0 W/m 0,0 km/h (0 Bft) 98,22 %
19.09.2019 21:00 11,8 C 9,4 C 8,7 C 69 % 1030,4 hPa 0,0 l/m 0,00 h 0,00 h 0 W/m 0,0 km/h (0 Bft) 97,72 %
19.09.2019 22:00 10,3 C 8,1 C 7,6 C 73 % 1030,6 hPa 0,0 l/m 0,00 h 0,00 h 0 W/m 0,0 km/h (0 Bft) 95,58 %
19.09.2019 23:00 9,1 C 7,1 C 6,8 C 75 % 1030,8 hPa 0,0 l/m 0,00 h 0,00 h 0 W/m 0,0 km/h (0 Bft) 95,82 %
20.09.2019 00:00 8,2 C 6,3 C 5,9 C 78 % 1030,7 hPa 0,0 l/m 0,00 h 0,00 h 0 W/m 0,0 km/h (0 Bft) 98,55 %
20.09.2019 01:00 7,5 C 5,8 C 5,3 C 81 % 1030,5 hPa 0,0 l/m 0,00 h 0,00 h 0 W/m 0,0 km/h (0 Bft) 96,92 %
20.09.2019 02:00 6,9 C 5,1 C 4,7 C 82 % 1030,4 hPa 0,0 l/m 0,00 h 0,00 h 0 W/m 0,0 km/h (0 Bft) 96,80 %
20.09.2019 03:00 6,3 C 4,8 C 4,4 C 84 % 1030,1 hPa 0,0 l/m 0,00 h 0,00 h 0 W/m 0,0 km/h (0 Bft) 99,08 %
20.09.2019 04:00 5,8 C 4,1 C 3,9 C 86 % 1029,9 hPa 0,0 l/m 0,00 h 0,00 h 0 W/m 0,0 km/h (0 Bft) 96,65 %
20.09.2019 05:00 5,3 C 3,9 C 3,4 C 87 % 1029,6 hPa 0,0 l/m 0,00 h 0,00 h 0 W/m 0,0 km/h (0 Bft) 95,53 %
20.09.2019 06:00 4,9 C 3,8 C 3,3 C 89 % 1029,4 hPa 0,0 l/m 0,00 h 0,00 h 0 W/m 0,0 km/h (0 Bft) 98,01 %
20.09.2019 07:00 4,8 C 3,8 C 3,3 C 90 % 1029,5 hPa 0,0 l/m 0,00 h 0,00 h 11 W/m 0,0 km/h (0 Bft) 98,65 %
20.09.2019 08:00 5,1 C 5,7 C 4,9 C 92 % 1029,8 hPa 0,0 l/m 0,00 h 0,00 h 33 W/m 0,2 km/h (0 Bft) 97,65 %
20.09.2019 09:00 7,1 C 11,4 C 8,6 C 95 % 1030,1 hPa 0,0 l/m 0,53 h 0,00 h 195 W/m 1,7 km/h (1 Bft) 97,22 %
20.09.2019 10:00 11,5 C 18,7 C 15,8 C 87 % 1030,0 hPa 0,0 l/m 1,00 h 0,00 h 427 W/m 4,1 km/h (1 Bft) 96,78 %
20.09.2019 11:00 15,7 C 22,0 C 14,9 C 64 % 1029,8 hPa 0,0 l/m 1,00 h 0,00 h 575 W/m 7,8 km/h (2 Bft) 96,12 %
20.09.2019 12:00 18,1 C 24,0 C 16,5 C 53 % 1029,4 hPa 0,0 l/m 1,00 h 0,00 h 677 W/m 9,4 km/h (2 Bft) 96,32 %
20.09.2019 13:00 19,4 C 24,9 C 20,3 C 48 % 1028,8 hPa 0,0 l/m 1,00 h 0,00 h 719 W/m 12,8 km/h (3 Bft) 97,17 %
20.09.2019 14:00 20,2 C 25,4 C 18,9 C 47 % 1028,0 hPa 0,0 l/m 1,00 h 0,00 h 696 W/m 11,4 km/h (2 Bft) 99,14 %
20.09.2019 15:00 21,1 C 26,5 C 20,0 C 47 % 1027,3 hPa 0,0 l/m 1,00 h 0,00 h 620 W/m 6,7 km/h (2 Bft) 96,09 %
20.09.2019 16:00 22,0 C 26,0 C 21,2 C 46 % 1026,4 hPa 0,0 l/m 1,00 h 0,00 h 495 W/m 7,1 km/h (2 Bft) 97,58 %
20.09.2019 17:00 21,9 C 23,5 C 19,1 C 47 % 1025,8 hPa 0,0 l/m 0,73 h 0,00 h 269 W/m 4,2 km/h (1 Bft) 98,30 %
20.09.2019 18:00 19,8 C 17,6 C 16,4 C 52 % 1025,4 hPa 0,0 l/m 0,00 h 0,00 h 36 W/m 2,5 km/h (1 Bft) 95,17 %
20.09.2019 19:00 17,5 C 14,9 C 13,9 C 56 % 1025,3 hPa 0,0 l/m 0,00 h 0,00 h 13 W/m 0,2 km/h (0 Bft) 98,72 %
20.09.2019 20:00 15,4 C 12,9 C 12,2 C 60 % 1025,3 hPa 0,0 l/m 0,00 h 0,00 h 0 W/m 0,2 km/h (0 Bft) 99,00 %
20.09.2019 21:00 13,8 C 11,5 C 10,7 C 63 % 1024,8 hPa 0,0 l/m 0,00 h 0,00 h 0 W/m 0,1 km/h (0 Bft) 96,37 %
20.09.2019 22:00 12,4 C 10,2 C 9,4 C 67 % 1024,4 hPa 0,0 l/m 0,00 h 0,00 h 0 W/m 0,0 km/h (0 Bft) 96,66 %
20.09.2019 23:00 11,1 C 9,0 C 8,3 C 70 % 1024,0 hPa 0,0 l/m 0,00 h 0,00 h 0 W/m 0,0 km/h (0 Bft) 98,29 %
21.09.2019 00:00 10,1 C 8,2 C 7,5 C 74 % 1023,6 hPa 0,0 l/m 0,00 h 0,00 h 0 W/m 0,0 km/h (0 Bft) 97,33 %
21.09.2019 01:00 9,3 C 7,6 C 6,9 C 78 % 1023,3 hPa 0,0 l/m 0,00 h 0,00 h 0 W/m 0,0 km/h (0 Bft) 97,65 %
21.09.2019 02:00 8,5 C 6,9 C 6,2 C 80 % 1023,0 hPa 0,0 l/m 0,00 h 0,00 h 0 W/m 0,0 km/h (0 Bft) 97,80 %
21.09.2019 03:00 7,8 C 7,0 C 6,1 C 82 % 1022,6 hPa 0,0 l/m 0,00 h 0,00 h 0 W/m 0,1 km/h (0 Bft) 97,23 %
21.09.2019 04:00 7,9 C 7,7 C 6,6 C 81 % 1022,1 hPa 0,0 l/m 0,00 h 0,00 h 0 W/m 0,9 km/h (0 Bft) 95,49 %
21.09.2019 05:00 8,0 C 6,9 C 6,0 C 79 % 1021,8 hPa 0,0 l/m 0,00 h 0,00 h 0 W/m 0,2 km/h (0 Bft) 99,57 %
21.09.2019 06:00 7,7 C 6,6 C 5,7 C 80 % 1021,4 hPa 0,0 l/m 0,00 h 0,00 h 0 W/m 0,2 km/h (0 Bft) 97,83 %
21.09.2019 07:00 7,3 C 6,4 C 5,6 C 81 % 1021,1 hPa 0,0 l/m 0,00 h 0,00 h 11 W/m 0,1 km/h (0 Bft) 95,51 %
21.09.2019 08:00 7,6 C 8,5 C 7,1 C 83 % 1021,0 hPa 0,0 l/m 0,00 h 0,00 h 26 W/m 2,9 km/h (1 Bft) 98,00 %
21.09.2019 09:00 12,6 C 15,8 C 13,2 C 68 % 1020,8 hPa 0,0 l/m 0,50 h 0,00 h 212 W/m 21,9 km/h (4 Bft) 98,36 %
21.09.2019 10:00 17,5 C 21,8 C 20,6 C 53 % 1020,6 hPa 0,0 l/m 1,00 h 0,00 h 490 W/m 25,3 km/h (4 Bft) 97,51 %
21.09.2019 11:00 19,9 C 24,4 C 18,8 C 46 % 1020,0 hPa 0,0 l/m 1,00 h 0,00 h 621 W/m 26,6 km/h (4 Bft) 97,37 %
21.09.2019 12:00 21,5 C 26,0 C 20,2 C 43 % 1019,5 hPa 0,0 l/m 1,00 h 0,00 h 705 W/m 26,1 km/h (4 Bft) 95,80 %
21.09.2019 13:00 23,2 C 27,8 C 24,2 C 40 % 1018,7 hPa 0,0 l/m 1,00 h 0,00 h 736 W/m 25,0 km/h (4 Bft) 97,72 %
21.09.2019 14:00 24,6 C 28,9 C 23,9 C 38 % 1017,7 hPa 0,0 l/m 1,00 h 0,00 h 713 W/m 22,2 km/h (4 Bft) 98,00 %
21.09.2019 15:00 25,4 C 29,0 C 24,5 C 38 % 1016,7 hPa 0,0 l/m 1,00 h 0,00 h 631 W/m 19,7 km/h (3 Bft) 97,44 %
21.09.2019 16:00 25,8 C 28,8 C 25,3 C 37 % 1015,9 hPa 0,0 l/m 1,00 h 0,00 h 501 W/m 20,7 km/h (4 Bft) 97,86 %
21.09.2019 17:00 25,5 C 26,7 C 23,6 C 39 % 1015,3 hPa 0,0 l/m 0,70 h 0,00 h 267 W/m 15,5 km/h (3 Bft) 97,29 %
21.09.2019 18:00 24,2 C 23,0 C 22,1 C 40 % 1015,0 hPa 0,0 l/m 0,00 h 0,00 h 33 W/m 14,8 km/h (3 Bft) 98,64 %
21.09.2019 19:00 22,9 C 20,4 C 19,6 C 42 % 1014,7 hPa 0,0 l/m 0,00 h 0,00 h 12 W/m 9,6 km/h (2 Bft) 96,65 %
21.09.2019 20:00 20,0 C 17,7 C 16,7 C 50 % 1014,7 hPa 0,0 l/m 0,00 h 0,00 h 0 W/m 4,3 km/h (1 Bft) 97,08 %
21.09.2019 21:00 18,4 C 17,0 C 16,0 C 53 % 1014,4 hPa 0,0 l/m 0,00 h 0,00 h 0 W/m 5,6 km/h (1 Bft) 97,72 %
21.09.2019 22:00 17,7 C 15,9 C 14,5 C 55 % 1014,2 hPa 0,0 l/m 0,00 h 0,00 h 0 W/m 3,4 km/h (1 Bft) 97,86 %
21.09.2019 23:00 16,6 C 14,7 C 13,2 C 59 % 1013,8 hPa 0,0 l/m 0,00 h 0,00 h 0 W/m 2,8 km/h (1 Bft) 98,08 %
22.09.2019 00:00 15,6 C 14,4 C 13,4 C 61 % 1013,2 hPa 0,0 l/m 0,00 h 0,00 h 0 W/m 6,0 km/h (2 Bft) 96,30 %
22.09.2019 01:00 15,2 C 13,7 C 12,4 C 62 % 1012,6 hPa 0,0 l/m 0,00 h 0,00 h 0 W/m 3,6 km/h (1 Bft) 98,08 %
22.09.2019 02:00 14,6 C 13,7 C 13,2 C 63 % 1012,4 hPa 0,0 l/m 0,00 h 0,00 h 0 W/m 10,7 km/h (2 Bft) 97,08 %
22.09.2019 03:00 14,3 C 13,3 C 12,8 C 64 % 1012,0 hPa 0,0 l/m 0,00 h 0,00 h 0 W/m 10,2 km/h (2 Bft) 98,93 %
22.09.2019 04:00 14,2 C 13,3 C 12,9 C 65 % 1011,4 hPa 0,0 l/m 0,00 h 0,00 h 0 W/m 12,0 km/h (2 Bft) 95,30 %
22.09.2019 05:00 14,3 C 13,5 C 13,0 C 65 % 1011,0 hPa 0,0 l/m 0,00 h 0,00 h 0 W/m 11,6 km/h (2 Bft) 97,67 %
22.09.2019 06:00 14,2 C 13,3 C 12,8 C 68 % 1010,6 hPa 0,0 l/m 0,00 h 0,00 h 0 W/m 12,7 km/h (3 Bft) 99,41 %
22.09.2019 07:00 14,3 C 13,8 C 13,3 C 68 % 1010,3 hPa 0,0 l/m 0,00 h 0,00 h 12 W/m 13,5 km/h (3 Bft) 95,45 %
22.09.2019 08:00 15,2 C 15,2 C 14,5 C 67 % 1010,2 hPa 0,0 l/m 0,00 h 0,00 h 36 W/m 16,0 km/h (3 Bft) 96,37 %
22.09.2019 09:00 17,1 C 18,9 C 16,9 C 63 % 1010,1 hPa 0,0 l/m 0,50 h 0,00 h 187 W/m 20,1 km/h (4 Bft) 99,14 %
22.09.2019 10:00 20,3 C 24,1 C 23,2 C 56 % 1010,0 hPa 0,0 l/m 1,00 h 0,00 h 449 W/m 22,2 km/h (4 Bft) 97,79 %
22.09.2019 11:00 22,1 C 25,6 C 21,4 C 54 % 1009,6 hPa 0,0 l/m 1,00 h 0,00 h 523 W/m 25,2 km/h (4 Bft) 95,73 %
22.09.2019 12:00 24,2 C 28,5 C 23,2 C 52 % 1009,1 hPa 0,0 l/m 1,00 h 0,00 h 586 W/m 18,2 km/h (3 Bft) 97,57 %
22.09.2019 13:00 26,2 C 30,3 C 26,8 C 51 % 1008,4 hPa 0,0 l/m 0,93 h 0,00 h 621 W/m 18,9 km/h (3 Bft) 99,86 %
22.09.2019 14:00 27,9 C 31,2 C 26,8 C 49 % 1007,9 hPa 0,0 l/m 0,73 h 0,00 h 554 W/m 19,3 km/h (3 Bft) 96,16 %
22.09.2019 15:00 27,6 C 29,4 C 27,0 C 51 % 1007,4 hPa 0,0 l/m 0,77 h 0,00 h 392 W/m 17,3 km/h (3 Bft) 97,08 %
22.09.2019 16:00 28,3 C 29,1 C 27,0 C 50 % 1007,1 hPa 0,0 l/m 0,60 h 0,00 h 298 W/m 17,7 km/h (3 Bft) 99,71 %
22.09.2019 17:00 27,4 C 27,2 C 26,0 C 52 % 1006,8 hPa 0,0 l/m 0,73 h 0,00 h 189 W/m 25,3 km/h (4 Bft) 95,94 %
22.09.2019 18:00 26,2 C 25,0 C 24,4 C 54 % 1006,9 hPa 0,0 l/m 0,00 h 0,00 h 54 W/m 19,4 km/h (3 Bft) 96,76 %
22.09.2019 19:00 25,0 C 23,4 C 23,0 C 57 % 1007,0 hPa 0,0 l/m 0,00 h 0,00 h 13 W/m 14,1 km/h (3 Bft) 99,66 %
22.09.2019 20:00 23,6 C 22,0 C 21,7 C 61 % 1007,3 hPa 0,0 l/m 0,00 h 0,00 h 0 W/m 12,8 km/h (3 Bft) 97,08 %
22.09.2019 21:00 22,7 C 21,4 C 21,1 C 64 % 1008,2 hPa 0,0 l/m 0,00 h 0,00 h 0 W/m 9,7 km/h (2 Bft) 96,07 %
22.09.2019 22:00 21,2 C 18,2 C 18,2 C 82 % 1009,0 hPa 0,2 l/m 0,00 h 0,73 h 0 W/m 11,8 km/h (2 Bft) 98,79 %
22.09.2019 23:00 19,0 C 16,7 C 16,7 C 92 % 1009,6 hPa 1,8 l/m 0,00 h 0,90 h 0 W/m 6,2 km/h (2 Bft) 98,01 %
Min-Datum _ 20.09.19 20.09.19 20.09.19 21.09.19 22.09.19 - - - - 16.09.19 19.09.19
_ Min-Zeit 07:32 06:42 04:56 14:12 17:32 - - - - 00:00 18:24
Minimum _ 4,7 C 3,3 C 3,3 C 37 % 1006,7 hPa - - - - 0,0 km/h (0 Bft) 87,23 %
Max-Datum _ 22.09.19 22.09.19 22.09.19 17.09.19 19.09.19 22.09.19 17.09.19 16.09.19 18.09.19 21.09.19 16.09.19
_ Max-Zeit 16:22 14:24 13:42 08:02 10:44 23:28 12:08 09:58 13:18 11:44 01:20
Maximum _ 28,6 C 33,3 C 32,2 C 98 % 1031,5 hPa 1,8 l/m 0,07 h 0,03 h 888 W/m 45,1 km/h
O (6 Bft)
100,00 %
Durchschnitt _ 14,7 C 15,1 C 13,5 C 73 % 1022,3 hPa #3,0 l/m #43:30 h #2:18 h 290 W/m 5,7 km/h (1 Bft) 97,46 %
© 2019 W. Hausmann